Time;durP1;ratioP1;P1;durP2;ratioP2;P2;SDS_P1;SDS_P2;PMS_P1;PMS_P2;Temp;Humidity;BMP_temperature;BMP_pressure;BME280_temperature;BME280_humidity;BME280_pressure;Samples;Min_cycle;Max_cycle;Signal;HPM_P1;HPM_P2
2022/08/30 00:01:01;;;;;;;4.05;2.67;;;;;;;17.74;57.52;100716.53;5093573;28;20044;-62
2022/08/30 00:01:56;;;;;;;4.57;2.70;;;;;;;17.74;57.64;100717.34;5093649;28;20070;-63
2022/08/30 00:04:25;;;;;;;4.65;2.50;;;;;;;17.75;57.56;100719.00;5078507;28;20055;-64
2022/08/30 00:06:52;;;;;;;4.03;2.60;;;;;;;17.78;57.47;100715.47;5091999;28;20415;-63
2022/08/30 00:09:19;;;;;;;4.97;2.75;;;;;;;17.83;57.64;100709.63;5092677;28;20052;-63
2022/08/30 00:11:47;;;;;;;5.68;2.90;;;;;;;17.88;57.51;100708.53;5094852;28;20056;-63
2022/08/30 00:14:14;;;;;;;6.55;3.22;;;;;;;17.86;57.55;100708.06;5095264;28;20063;-63
2022/08/30 00:16:41;;;;;;;3.72;2.60;;;;;;;17.91;57.46;100710.66;5093786;28;20074;-63
2022/08/30 00:19:10;;;;;;;5.30;2.80;;;;;;;17.92;57.56;100706.66;5095467;28;20055;-63
2022/08/30 00:21:38;;;;;;;6.00;2.93;;;;;;;17.94;57.75;100706.28;5094223;28;20052;-63
2022/08/30 00:24:06;;;;;;;4.95;2.72;;;;;;;17.97;57.55;100711.19;5093178;28;20497;-63
2022/08/30 00:26:33;;;;;;;6.78;2.67;;;;;;;17.98;57.49;100705.22;5092072;28;20055;-63
2022/08/30 00:29:00;;;;;;;7.03;3.53;;;;;;;18.00;57.23;100700.03;5094972;28;20044;-63
2022/08/30 00:31:27;;;;;;;4.65;2.50;;;;;;;18.03;57.40;100701.31;5087272;28;20122;-63
2022/08/30 00:33:55;;;;;;;7.25;2.95;;;;;;;18.01;57.15;100698.84;5083526;28;20590;-63
2022/08/30 00:36:23;;;;;;;4.85;2.92;;;;;;;18.03;57.33;100699.31;5094449;28;20051;-63
2022/08/30 00:38:51;;;;;;;4.07;2.80;;;;;;;18.00;57.19;100697.22;5094040;28;20044;-63
2022/08/30 00:41:18;;;;;;;5.57;2.92;;;;;;;17.95;57.44;100700.28;5094502;28;20064;-63
2022/08/30 00:43:46;;;;;;;5.28;3.25;;;;;;;17.84;57.76;100694.34;5093258;28;20068;-63
2022/08/30 00:46:13;;;;;;;4.95;2.85;;;;;;;17.86;57.70;100685.53;5099957;28;20055;-63
2022/08/30 00:48:45;;;;;;;4.03;2.60;;;;;;;17.87;57.72;100691.97;5096707;28;20052;-63
2022/08/30 00:51:14;;;;;;;5.00;3.42;;;;;;;17.85;57.79;100700.81;5094947;28;20051;-63
2022/08/30 00:53:46;;;;;;;;;;;;;;;17.75;58.37;100704.09;5088939;28;20396;-63
2022/08/30 00:56:14;;;;;;;4.25;2.70;;;;;;;17.74;58.27;100708.09;5093893;28;19920;-65
2022/08/30 00:58:47;;;;;;;5.32;3.15;;;;;;;17.73;58.52;100710.09;5093989;28;20052;-63
2022/08/30 01:01:14;;;;;;;6.50;2.90;;;;;;;17.71;58.64;100700.38;5092951;28;20492;-62
2022/08/30 01:03:43;;;;;;;5.97;3.70;;;;;;;17.69;58.87;100700.72;5089740;28;20055;-63
2022/08/30 01:06:11;;;;;;;3.20;2.60;;;;;;;17.71;58.71;100706.00;5096072;28;20419;-63
2022/08/30 01:08:38;;;;;;;5.93;2.90;;;;;;;17.74;58.70;100706.06;5106784;28;20400;-63
2022/08/30 01:11:07;;;;;;;4.40;2.95;;;;;;;17.76;58.73;100702.91;5093671;28;20063;-63
2022/08/30 01:13:35;;;;;;;6.60;3.10;;;;;;;17.74;58.75;100706.06;5094000;28;20048;-63
2022/08/30 01:16:04;;;;;;;5.03;2.85;;;;;;;17.72;58.75;100704.81;5092844;28;20394;-63
2022/08/30 01:18:32;;;;;;;4.88;2.72;;;;;;;17.71;58.79;100711.63;5093890;28;20405;-63
2022/08/30 01:21:06;;;;;;;6.32;3.10;;;;;;;17.67;58.99;100711.53;5092910;28;20048;-63
2022/08/30 01:23:36;;;;;;;6.97;3.33;;;;;;;17.69;59.11;100708.34;5086827;28;20047;-63
2022/08/30 01:26:05;;;;;;;7.07;3.17;;;;;;;17.62;59.35;100701.31;5102439;28;20074;-63
2022/08/30 01:28:34;;;;;;;5.35;3.08;;;;;;;17.61;59.32;100702.50;5082356;28;20048;-63
2022/08/30 01:31:01;;;;;;;6.10;3.22;;;;;;;17.58;59.65;100706.03;5077862;28;20408;-63
2022/08/30 01:33:29;;;;;;;4.85;3.03;;;;;;;17.56;59.79;100707.56;5093579;28;20059;-63
2022/08/30 01:35:59;;;;;;;4.63;3.03;;;;;;;17.54;59.87;100704.28;5089236;28;20048;-61
2022/08/30 01:38:30;;;;;;;5.63;3.35;;;;;;;17.48;60.09;100702.91;5086231;28;20051;-63
2022/08/30 01:41:00;;;;;;;4.80;2.95;;;;;;;17.44;60.08;100709.22;5091801;28;20040;-62
2022/08/30 01:43:27;;;;;;;3.72;2.80;;;;;;;17.41;60.09;100714.75;5092616;28;20059;-63
2022/08/30 01:45:55;;;;;;;5.65;3.50;;;;;;;17.41;60.23;100717.59;5101571;28;20496;-63
2022/08/30 01:48:22;;;;;;;5.82;2.70;;;;;;;17.38;60.20;100710.63;5101182;28;20059;-63
2022/08/30 01:50:49;;;;;;;4.00;3.03;;;;;;;17.41;60.33;100711.94;5091829;28;20502;-63
2022/08/30 01:53:17;;;;;;;4.72;2.90;;;;;;;17.43;60.37;100703.97;5092910;28;20056;-63
2022/08/30 01:55:44;;;;;;;5.70;3.10;;;;;;;17.45;60.32;100716.50;5096310;28;20055;-63
2022/08/30 01:58:13;;;;;;;4.22;3.00;;;;;;;17.48;60.44;100709.34;5093164;28;20401;-63
2022/08/30 02:00:40;;;;;;;4.53;3.20;;;;;;;17.49;60.45;100716.63;5091790;28;20040;-63
2022/08/30 02:03:08;;;;;;;4.30;3.22;;;;;;;17.53;60.13;100709.06;5091741;28;20056;-63
2022/08/30 02:05:35;;;;;;;5.20;3.03;;;;;;;17.58;60.48;100713.66;5092500;28;20044;-63
2022/08/30 02:08:03;;;;;;;5.07;3.42;;;;;;;17.62;60.37;100711.78;5091907;28;20063;-63
2022/08/30 02:10:31;;;;;;;4.32;3.08;;;;;;;17.65;60.60;100719.50;5092090;28;20114;-63
2022/08/30 02:12:58;;;;;;;5.38;3.65;;;;;;;17.70;60.44;100715.59;5078902;28;20424;-63
2022/08/30 02:15:27;;;;;;;4.70;3.35;;;;;;;17.75;60.21;100718.19;5074662;28;20159;-63
2022/08/30 02:17:54;;;;;;;4.38;3.28;;;;;;;17.80;60.19;100715.09;5070266;28;20056;-64
2022/08/30 02:20:21;;;;;;;4.15;3.47;;;;;;;17.82;60.11;100707.97;5061763;28;20049;-63
2022/08/30 02:22:49;;;;;;;5.68;3.70;;;;;;;17.84;60.17;100705.59;5070005;28;20503;-63
2022/08/30 02:25:16;;;;;;;5.88;3.60;;;;;;;17.84;60.10;100714.06;5058214;28;20059;-63
2022/08/30 02:27:44;;;;;;;4.70;3.33;;;;;;;17.84;60.41;100716.88;5072654;28;20059;-63
2022/08/30 02:30:12;;;;;;;5.22;2.72;;;;;;;17.83;60.17;100715.25;5072299;28;20053;-63
2022/08/30 02:32:41;;;;;;;6.20;3.22;;;;;;;17.81;60.13;100714.75;5071871;28;20048;-63
2022/08/30 02:35:09;;;;;;;7.00;3.47;;;;;;;17.80;60.27;100709.47;5071735;28;20071;-63
2022/08/30 02:37:36;;;;;;;3.85;2.95;;;;;;;17.76;60.09;100700.91;5066793;28;20502;-63
2022/08/30 02:40:06;;;;;;;5.20;3.47;;;;;;;17.77;60.45;100702.56;5070599;28;20052;-63
2022/08/30 02:42:35;;;;;;;4.88;3.60;;;;;;;17.75;60.80;100702.09;5072539;28;20485;-63
2022/08/30 02:45:03;;;;;;;5.30;3.40;;;;;;;17.75;60.92;100702.09;5069831;28;20191;-63
2022/08/30 02:47:37;;;;;;;5.07;3.45;;;;;;;17.75;60.95;100701.28;5072381;28;20049;-61
2022/08/30 02:50:08;;;;;;;6.95;3.80;;;;;;;17.73;61.06;100698.81;5070623;28;20048;-62
2022/08/30 02:52:36;;;;;;;5.13;3.30;;;;;;;17.73;61.01;100700.81;5072660;28;20056;-64
2022/08/30 02:55:03;;;;;;;4.15;2.97;;;;;;;17.71;60.95;100694.72;5072920;28;20056;-62
2022/08/30 02:57:31;;;;;;;4.53;3.30;;;;;;;17.66;61.05;100693.00;5082206;28;20053;-63
2022/08/30 02:59:58;;;;;;;5.22;3.38;;;;;;;17.60;61.22;100700.03;5071599;28;20051;-63
2022/08/30 03:02:26;;;;;;;4.97;3.47;;;;;;;17.52;61.49;100692.56;5071986;28;20059;-63
2022/08/30 03:04:53;;;;;;;5.97;3.30;;;;;;;17.45;61.79;100693.97;5068407;28;20421;-62
2022/08/30 03:07:22;;;;;;;5.43;3.78;;;;;;;17.48;61.72;100700.06;5069466;28;20059;-63
2022/08/30 03:09:49;;;;;;;7.35;4.00;;;;;;;17.47;61.79;100689.97;5071592;28;20630;-63
2022/08/30 03:12:17;;;;;;;5.40;3.25;;;;;;;17.45;62.01;100696.78;5070792;28;20481;-63
2022/08/30 03:14:44;;;;;;;7.30;3.65;;;;;;;17.48;62.01;100698.06;5071639;28;20041;-63
2022/08/30 03:17:12;;;;;;;6.15;3.50;;;;;;;17.48;61.86;100692.44;5069988;28;20052;-63
2022/08/30 03:19:39;;;;;;;4.95;3.35;;;;;;;17.50;61.77;100687.28;5061701;28;20347;-63
2022/08/30 03:22:07;;;;;;;5.10;3.33;;;;;;;17.50;61.75;100683.66;5070527;28;20074;-62
2022/08/30 03:24:36;;;;;;;9.15;6.22;;;;;;;17.48;62.06;100686.81;5060403;28;21122;-63
2022/08/30 03:27:07;;;;;;;5.57;4.10;;;;;;;17.44;61.90;100685.88;5083258;28;20417;-62
2022/08/30 03:29:34;;;;;;;6.35;4.07;;;;;;;17.44;62.08;100692.31;5070604;28;20056;-63
2022/08/30 03:32:02;;;;;;;4.38;3.55;;;;;;;17.46;61.80;100691.97;5069239;28;20056;-63
2022/08/30 03:34:29;;;;;;;5.82;3.90;;;;;;;17.43;61.98;100692.69;5071263;28;20421;-63
2022/08/30 03:36:57;;;;;;;7.35;3.78;;;;;;;17.38;62.21;100690.94;5068053;28;20049;-63
2022/08/30 03:39:25;;;;;;;6.47;4.72;;;;;;;17.33;62.40;100679.13;5070549;28;20428;-63
2022/08/30 03:41:54;;;;;;;7.78;4.13;;;;;;;17.29;62.29;100689.44;5072010;28;20048;-63
2022/08/30 03:44:21;;;;;;;5.88;3.25;;;;;;;17.19;62.46;100691.56;5069312;28;20044;-62
2022/08/30 03:46:49;;;;;;;3.75;3.03;;;;;;;17.07;62.63;100687.94;5078892;28;20053;-63
2022/08/30 03:49:17;;;;;;;5.15;3.67;;;;;;;17.06;62.68;100691.94;5070711;28;20056;-63
2022/08/30 03:51:45;;;;;;;5.60;3.50;;;;;;;16.99;62.67;100693.34;5071218;28;20048;-63
2022/08/30 03:54:12;;;;;;;6.80;4.63;;;;;;;16.93;62.84;100700.38;5070578;28;20049;-63
2022/08/30 03:56:40;;;;;;;5.93;4.25;;;;;;;16.87;63.03;100704.59;5065596;28;20055;-63
2022/08/30 03:59:08;;;;;;;6.75;4.70;;;;;;;16.84;62.85;100694.06;5059311;28;20059;-63
2022/08/30 04:01:36;;;;;;;5.65;4.45;;;;;;;16.76;63.58;100698.59;5070589;28;20045;-63
2022/08/30 04:04:04;;;;;;;6.32;4.40;;;;;;;16.71;63.81;100703.63;5077010;28;20052;-63
2022/08/30 04:06:32;;;;;;;6.90;4.65;;;;;;;16.68;64.04;100702.34;5067452;28;20060;-63
2022/08/30 04:08:59;;;;;;;6.25;4.40;;;;;;;16.65;64.03;100705.84;5070550;28;20052;-63
2022/08/30 04:11:26;;;;;;;6.97;5.28;;;;;;;16.62;64.13;100712.16;5078802;28;20513;-64
2022/08/30 04:13:55;;;;;;;7.57;5.78;;;;;;;16.59;64.23;100708.06;5071444;28;20057;-63
2022/08/30 04:16:25;;;;;;;9.18;6.10;;;;;;;16.57;64.06;100709.59;5059295;28;20061;-63
2022/08/30 04:18:52;;;;;;;;;;;;;;;16.53;64.15;100705.84;5070925;28;20500;-63
2022/08/30 04:21:19;;;;;;;7.13;4.90;;;;;;;16.50;64.00;100704.53;5071584;28;20250;-63
2022/08/30 04:23:46;;;;;;;8.10;4.97;;;;;;;16.48;64.01;100700.44;5072115;28;20491;-63
2022/08/30 04:26:14;;;;;;;7.47;5.10;;;;;;;16.43;64.44;100707.91;5085186;28;20056;-63
2022/08/30 04:28:41;;;;;;;6.93;4.97;;;;;;;16.38;64.42;100713.78;5095473;28;20155;-63
2022/08/30 04:31:09;;;;;;;6.32;4.43;;;;;;;16.36;64.48;100706.88;5072408;28;20052;-63
2022/08/30 04:33:39;;;;;;;8.93;4.88;;;;;;;16.33;64.49;100710.34;5071211;28;20516;-63
2022/08/30 04:36:07;;;;;;;6.90;4.63;;;;;;;16.29;64.48;100709.41;5073199;28;20057;-63
2022/08/30 04:38:36;;;;;;;8.35;5.50;;;;;;;16.26;64.56;100708.13;5085131;28;20055;-63
2022/08/30 04:41:10;;;;;;;6.47;4.60;;;;;;;16.22;64.56;100708.00;5070718;28;20052;-62
2022/08/30 04:43:37;;;;;;;8.38;4.93;;;;;;;16.17;64.56;100713.84;5072239;28;20064;-63
2022/08/30 04:46:06;;;;;;;6.95;4.72;;;;;;;16.15;64.95;100706.94;5084318;28;20521;-64
2022/08/30 04:48:35;;;;;;;9.27;6.35;;;;;;;16.12;64.90;100711.22;5082652;28;20059;-63
2022/08/30 04:51:05;;;;;;;10.20;7.05;;;;;;;16.11;64.89;100709.59;5078022;28;20060;-63
2022/08/30 04:53:32;;;;;;;8.20;5.75;;;;;;;16.10;65.11;100718.38;5074041;28;20053;-63
2022/08/30 04:56:00;;;;;;;17.92;5.60;;;;;;;16.09;65.19;100725.16;5074791;28;20052;-63
2022/08/30 04:58:27;;;;;;;8.57;5.68;;;;;;;16.10;65.21;100726.81;5073479;28;20048;-63
2022/08/30 05:00:54;;;;;;;8.00;5.25;;;;;;;16.04;65.38;100720.56;5075659;28;20055;-63
2022/08/30 05:03:22;;;;;;;9.00;5.10;;;;;;;15.99;65.77;100727.22;5072485;28;20063;-60
2022/08/30 05:05:50;;;;;;;7.20;5.63;;;;;;;15.81;66.37;100735.00;5065297;28;20048;-60
2022/08/30 05:08:21;;;;;;;9.93;5.38;;;;;;;15.72;66.98;100739.03;5073588;28;20052;-60
2022/08/30 05:10:50;;;;;;;8.50;5.25;;;;;;;15.82;66.62;100742.25;5077639;28;20056;-59
2022/08/30 05:13:20;;;;;;;10.05;6.05;;;;;;;15.64;67.42;100732.28;5073039;28;20052;-60
2022/08/30 05:15:48;;;;;;;8.25;6.05;;;;;;;15.54;68.00;100729.88;5061690;28;20486;-60
2022/08/30 05:18:16;;;;;;;11.07;5.43;;;;;;;15.58;68.00;100739.28;5070686;28;20393;-60
2022/08/30 05:20:44;;;;;;;9.85;6.78;;;;;;;15.71;67.97;100743.00;5072381;28;20043;-60
2022/08/30 05:23:11;;;;;;;11.07;6.30;;;;;;;15.74;67.71;100736.72;5076052;28;20059;-59
2022/08/30 05:25:42;;;;;;;7.20;5.53;;;;;;;15.64;68.24;100737.91;5089937;28;20067;-60
2022/08/30 05:28:09;;;;;;;7.70;5.88;;;;;;;15.70;68.37;100742.16;5086612;28;20492;-60
2022/08/30 05:30:37;;;;;;;11.27;6.75;;;;;;;15.97;67.42;100740.78;5081636;28;20060;-60
2022/08/30 05:33:05;;;;;;;9.18;5.63;;;;;;;16.03;67.41;100749.84;5074270;28;20060;-60
2022/08/30 05:35:32;;;;;;;11.23;6.57;;;;;;;16.09;67.06;100744.84;5093342;28;20047;-60
2022/08/30 05:38:00;;;;;;;9.52;5.93;;;;;;;16.19;67.19;100752.81;5066597;28;20060;-60
2022/08/30 05:40:27;;;;;;;7.05;5.40;;;;;;;16.33;67.04;100749.72;5081640;28;20416;-60
2022/08/30 05:42:55;;;;;;;8.63;4.78;;;;;;;16.52;66.58;100741.56;5073305;28;20059;-60
2022/08/30 05:45:23;;;;;;;7.57;5.30;;;;;;;16.73;65.89;100740.66;5073021;28;20397;-60
2022/08/30 05:47:50;;;;;;;10.15;6.50;;;;;;;16.84;65.47;100737.06;5068878;28;20044;-60
2022/08/30 05:50:18;;;;;;;9.27;5.97;;;;;;;16.93;65.33;100745.41;5067438;28;20048;-60
2022/08/30 05:52:45;;;;;;;6.20;4.97;;;;;;;17.03;65.30;100750.56;5068127;28;20397;-61
2022/08/30 05:55:12;;;;;;;9.25;6.13;;;;;;;17.21;65.08;100756.75;5074412;28;20052;-60
2022/08/30 05:57:40;;;;;;;15.70;7.20;;;;;;;17.42;64.65;100753.00;5083478;28;20059;-60
2022/08/30 06:00:13;;;;;;;8.18;6.22;;;;;;;17.58;64.37;100750.28;5083884;28;20059;-60
2022/08/30 06:02:42;;;;;;;7.68;5.68;;;;;;;17.78;63.97;100757.72;5071920;28;20048;-60
2022/08/30 06:05:10;;;;;;;7.30;5.93;;;;;;;18.00;63.29;100749.97;5088901;28;20074;-60
2022/08/30 06:07:37;;;;;;;11.30;5.90;;;;;;;18.18;62.57;100751.25;5091277;28;20063;-63
2022/08/30 06:10:06;;;;;;;8.52;5.38;;;;;;;18.32;61.96;100741.59;5072540;28;20078;-63
2022/08/30 06:12:33;;;;;;;10.80;6.33;;;;;;;18.48;61.36;100745.25;5063265;28;20735;-64
2022/08/30 06:15:01;;;;;;;9.00;5.57;;;;;;;18.61;61.12;100752.44;5073618;28;20428;-63
2022/08/30 06:17:30;;;;;;;9.43;6.00;;;;;;;18.77;60.59;100760.09;5066689;28;20052;-64
2022/08/30 06:19:57;;;;;;;7.60;6.28;;;;;;;18.89;60.20;100759.25;5068670;28;20060;-64
2022/08/30 06:22:25;;;;;;;9.82;5.85;;;;;;;19.04;60.02;100769.69;5069935;28;20055;-64
2022/08/30 06:24:52;;;;;;;8.73;5.72;;;;;;;19.16;59.79;100769.59;5071913;28;20057;-64
2022/08/30 06:27:19;;;;;;;10.52;5.50;;;;;;;19.28;59.70;100760.22;5072011;28;20481;-63
2022/08/30 06:29:51;;;;;;;16.65;6.57;;;;;;;19.43;59.25;100767.84;5071848;28;20067;-64
2022/08/30 06:32:18;;;;;;;6.55;5.65;;;;;;;19.50;58.94;100767.19;5071049;28;20148;-64
2022/08/30 06:34:47;;;;;;;12.73;6.75;;;;;;;19.69;58.18;100766.41;5072071;28;20067;-64
2022/08/30 06:37:14;;;;;;;13.07;6.05;;;;;;;19.82;57.60;100767.94;5072189;28;20052;-64
2022/08/30 06:39:42;;;;;;;10.57;6.85;;;;;;;19.78;57.23;100771.88;5072311;28;20048;-64
2022/08/30 06:42:09;;;;;;;8.57;6.07;;;;;;;19.84;57.04;100765.56;5085709;28;20047;-63
2022/08/30 06:44:37;;;;;;;11.55;6.45;;;;;;;19.84;57.07;100757.09;5083695;28;20051;-64
2022/08/30 06:47:04;;;;;;;8.20;4.88;;;;;;;19.97;57.02;100752.09;5086492;28;20047;-64
2022/08/30 06:49:32;;;;;;;7.03;4.70;;;;;;;20.05;56.96;100755.88;5086880;28;20060;-58
2022/08/30 06:52:00;;;;;;;6.88;4.95;;;;;;;20.20;56.60;100755.00;5071813;28;20465;-57
2022/08/30 06:54:28;;;;;;;7.30;5.30;;;;;;;20.03;57.22;100752.59;5071786;28;20049;-57
2022/08/30 06:56:55;;;;;;;15.77;5.55;;;;;;;20.27;56.22;100755.13;5084463;28;20040;-57
2022/08/30 06:59:23;;;;;;;10.23;5.00;;;;;;;20.37;56.02;100748.06;5071523;28;20063;-57
2022/08/30 07:01:50;;;;;;;8.90;5.80;;;;;;;20.47;55.61;100755.09;5071566;28;20044;-57
2022/08/30 07:04:17;;;;;;;9.93;5.13;;;;;;;20.70;55.30;100749.50;5071558;28;20052;-57
2022/08/30 07:06:45;;;;;;;7.82;5.95;;;;;;;20.70;55.00;100765.66;5070565;28;20061;-56
2022/08/30 07:09:13;;;;;;;8.68;4.82;;;;;;;20.84;55.01;100760.25;5072045;28;20064;-57
2022/08/30 07:11:41;;;;;;;5.53;4.03;;;;;;;21.06;54.67;100764.25;5069508;28;20382;-57
2022/08/30 07:14:08;;;;;;;5.88;4.57;;;;;;;21.22;54.34;100755.63;5066038;28;20390;-57
2022/08/30 07:16:36;;;;;;;5.30;4.22;;;;;;;21.39;54.29;100752.25;5070532;28;20056;-57
2022/08/30 07:19:04;;;;;;;6.70;4.75;;;;;;;21.40;53.91;100756.72;5071938;28;20056;-57
2022/08/30 07:21:34;;;;;;;5.32;4.00;;;;;;;21.75;53.11;100763.31;5070581;28;20048;-57
2022/08/30 07:24:02;;;;;;;6.32;4.80;;;;;;;21.92;52.58;100747.75;5071813;28;20053;-57
2022/08/30 07:26:34;;;;;;;7.30;4.22;;;;;;;22.21;51.80;100754.59;5075617;28;20054;-57
2022/08/30 07:29:02;;;;;;;8.07;4.88;;;;;;;23.01;49.65;100749.38;5086715;28;20114;-57
2022/08/30 07:31:31;;;;;;;7.00;4.20;;;;;;;24.14;47.26;100746.03;5074872;28;20078;-57
2022/08/30 07:33:59;;;;;;;6.03;4.07;;;;;;;25.04;45.68;100747.03;5071742;28;20048;-57
2022/08/30 07:36:26;;;;;;;4.93;4.13;;;;;;;25.98;42.96;100748.53;5076197;28;20059;-55
2022/08/30 07:38:54;;;;;;;7.78;4.32;;;;;;;26.22;42.07;100745.97;5071679;28;20053;-58
2022/08/30 07:41:24;;;;;;;5.82;4.30;;;;;;;26.89;40.56;100733.31;5071150;28;20049;-57
2022/08/30 07:43:53;;;;;;;6.30;4.30;;;;;;;27.74;38.86;100744.38;5071644;28;20056;-57
2022/08/30 07:46:21;;;;;;;8.48;4.60;;;;;;;28.37;37.96;100738.28;5069118;28;20040;-55
2022/08/30 07:48:48;;;;;;;7.90;4.17;;;;;;;29.64;35.88;100738.66;5080300;28;20057;-58
2022/08/30 07:51:20;;;;;;;6.72;4.40;;;;;;;30.30;34.63;100750.47;5084700;28;20490;-58
2022/08/30 07:53:47;;;;;;;6.82;3.97;;;;;;;30.74;33.31;100740.44;5071507;28;20052;-58
2022/08/30 07:56:15;;;;;;;6.30;3.85;;;;;;;31.55;32.21;100744.56;5082558;28;20063;-56
2022/08/30 07:58:43;;;;;;;5.18;3.67;;;;;;;32.03;31.10;100741.19;5075078;28;20052;-58
2022/08/30 08:01:13;;;;;;;6.97;3.90;;;;;;;32.03;31.13;100744.88;5075401;28;20056;-58
2022/08/30 08:03:42;;;;;;;4.63;3.70;;;;;;;31.79;31.30;100740.63;5073940;28;20049;-58
2022/08/30 08:06:09;;;;;;;;;;;;;;;30.79;33.17;100741.97;5075922;28;20060;-58
2022/08/30 08:08:37;;;;;;;6.90;3.93;;;;;;;31.46;32.02;100750.16;5074653;28;19927;-58
2022/08/30 08:11:09;;;;;;;5.57;3.57;;;;;;;32.41;30.64;100738.38;5075260;28;20416;-58
2022/08/30 08:13:36;;;;;;;4.15;3.28;;;;;;;32.93;30.27;100740.00;5074470;28;20055;-52
2022/08/30 08:16:04;;;;;;;5.78;3.95;;;;;;;33.65;29.04;100740.44;5095278;28;20063;-57
2022/08/30 08:18:32;;;;;;;4.75;3.63;;;;;;;34.02;29.24;100746.50;5088222;28;20044;-56
2022/08/30 08:21:00;;;;;;;7.18;3.47;;;;;;;34.41;27.96;100747.09;5093783;28;20060;-56
2022/08/30 08:23:28;;;;;;;7.78;3.58;;;;;;;34.71;27.36;100744.66;5082584;28;20059;-56
2022/08/30 08:25:56;;;;;;;5.28;3.50;;;;;;;35.04;27.23;100739.16;5074656;28;20131;-56
2022/08/30 08:28:24;;;;;;;5.00;3.40;;;;;;;35.15;26.73;100750.31;5075477;28;20072;-56
2022/08/30 08:30:52;;;;;;;4.85;3.42;;;;;;;35.26;26.85;100758.53;5074077;28;20408;-56
2022/08/30 08:33:19;;;;;;;5.47;3.10;;;;;;;35.50;26.73;100756.63;5074143;28;20048;-56
2022/08/30 08:35:48;;;;;;;6.00;3.67;;;;;;;35.60;26.19;100751.66;5074689;28;20056;-56
2022/08/30 08:38:16;;;;;;;6.72;3.05;;;;;;;35.41;26.65;100753.75;5077819;28;20401;-57
2022/08/30 08:40:55;;;;;;;4.15;2.80;;;;;;;35.03;27.52;100752.03;5074349;28;20052;-57
2022/08/30 08:43:26;;;;;;;6.72;3.30;;;;;;;35.96;26.88;100747.16;5074186;28;20052;-56
2022/08/30 08:45:58;;;;;;;3.92;2.70;;;;;;;36.74;25.07;100739.72;5074239;28;20056;-63
2022/08/30 08:48:34;;;;;;;5.47;3.00;;;;;;;37.57;23.92;100741.34;5078849;28;20063;-62
2022/08/30 08:53:55;;;;;;;3.63;2.30;;;;;;;38.09;23.01;100735.22;5074087;28;20051;-63
2022/08/30 08:56:22;;;;;;;3.72;2.95;;;;;;;38.20;22.46;100738.34;5074462;28;20059;-62
2022/08/30 08:58:52;;;;;;;5.20;2.83;;;;;;;37.42;23.38;100743.34;5081420;28;20063;-63
2022/08/30 09:01:24;;;;;;;5.35;2.53;;;;;;;36.98;23.85;100738.94;5073984;28;20048;-63
2022/08/30 09:03:52;;;;;;;5.20;3.00;;;;;;;37.56;23.43;100737.59;5073976;28;20055;-63
2022/08/30 09:06:35;;;;;;;2.53;2.10;;;;;;;37.66;23.50;100740.47;5074257;28;20052;-63
2022/08/30 09:09:03;;;;;;;7.45;2.78;;;;;;;37.81;23.19;100741.28;5072102;28;20055;-63
2022/08/30 09:11:32;;;;;;;3.50;2.45;;;;;;;38.32;22.60;100734.28;5073076;28;20469;-62
2022/08/30 09:14:00;;;;;;;6.35;2.75;;;;;;;38.55;22.36;100741.31;5066784;28;20055;-63
2022/08/30 09:16:46;;;;;;;4.30;2.60;;;;;;;38.55;22.19;100747.16;5073742;28;20056;-62
2022/08/30 09:19:29;;;;;;;3.83;2.60;;;;;;;38.95;22.22;100739.84;5086063;28;20048;-62
2022/08/30 09:21:59;;;;;;;5.28;2.40;;;;;;;38.94;21.83;100737.44;5073923;28;20052;-62
2022/08/30 09:24:27;;;;;;;3.67;2.28;;;;;;;38.70;21.92;100732.59;5073184;28;20053;-62
2022/08/30 09:26:54;;;;;;;13.40;3.00;;;;;;;38.89;22.00;100732.31;5073881;28;20059;-62
2022/08/30 09:29:21;;;;;;;5.70;2.27;;;;;;;39.15;21.90;100736.16;5089181;28;20052;-62
2022/08/30 09:31:52;;;;;;;4.22;2.22;;;;;;;40.10;20.74;100738.66;5073023;28;20045;-62
2022/08/30 09:34:22;;;;;;;3.63;2.40;;;;;;;40.61;20.57;100733.25;5073974;28;20136;-62
2022/08/30 09:36:52;;;;;;;4.15;2.25;;;;;;;40.97;20.44;100734.63;5072669;28;20071;-62
2022/08/30 09:39:27;;;;;;;3.80;2.00;;;;;;;41.25;19.38;100734.00;5072563;28;20481;-62
2022/08/30 09:42:09;;;;;;;5.70;2.50;;;;;;;41.37;19.53;100734.81;5073544;28;20048;-64
2022/08/30 09:44:38;;;;;;;6.35;2.40;;;;;;;41.86;18.78;100729.69;5072854;28;20060;-62
2022/08/30 09:47:19;;;;;;;3.58;2.00;;;;;;;42.45;18.48;100718.34;5072390;28;20052;-62
2022/08/30 09:49:47;;;;;;;4.20;2.33;;;;;;;42.53;18.22;100725.28;5073195;28;20060;-62
2022/08/30 09:52:28;;;;;;;6.18;2.50;;;;;;;43.22;17.49;100724.59;5072874;28;20060;-62
2022/08/30 09:55:10;;;;;;;3.97;2.17;;;;;;;43.54;17.43;100730.88;5072855;28;20056;-62
2022/08/30 09:57:51;;;;;;;4.72;2.47;;;;;;;43.68;16.97;100725.22;5077313;28;20059;-62
2022/08/30 10:00:21;;;;;;;3.33;2.10;;;;;;;43.90;16.95;100730.97;5093375;28;20055;-61
2022/08/30 10:03:01;;;;;;;3.97;2.40;;;;;;;44.44;16.21;100714.00;5072738;28;20053;-62
2022/08/30 10:05:36;;;;;;;4.00;2.40;;;;;;;44.86;16.16;100717.63;5073108;28;20401;-60
2022/08/30 10:08:14;;;;;;;3.35;1.98;;;;;;;45.07;15.91;100720.88;5080993;28;20493;-63
2022/08/30 10:10:51;;;;;;;3.63;2.60;;;;;;;45.44;15.62;100713.50;5091605;28;20067;-62
2022/08/30 10:13:36;;;;;;;5.72;2.83;;;;;;;45.34;15.44;100716.84;5072425;28;20418;-62
2022/08/30 10:16:15;;;;;;;2.83;2.08;;;;;;;45.40;15.43;100713.78;5072556;28;20052;-62
2022/08/30 10:18:54;;;;;;;14.35;2.83;;;;;;;45.61;15.24;100704.41;5081725;28;20417;-62
2022/08/30 10:21:27;;;;;;;4.00;2.08;;;;;;;45.88;15.24;100699.50;5061276;28;20048;-62
2022/08/30 10:24:01;;;;;;;3.08;1.95;;;;;;;45.40;15.35;100710.84;5072603;28;20048;-62
2022/08/30 10:26:33;;;;;;;6.85;2.20;;;;;;;45.18;15.93;100712.72;5071181;28;20485;-62
2022/08/30 10:29:06;;;;;;;3.25;2.40;;;;;;;45.55;14.99;100693.53;5072532;28;20409;-62
2022/08/30 10:31:39;;;;;;;4.30;2.42;;;;;;;45.71;14.98;100690.94;5071805;28;20063;-62
2022/08/30 10:34:12;;;;;;;6.28;2.50;;;;;;;45.82;15.05;100689.94;5072268;28;20056;-62
2022/08/30 10:36:44;;;;;;;4.65;2.00;;;;;;;46.11;14.59;100688.19;5070812;28;20063;-62
2022/08/30 10:39:18;;;;;;;3.85;2.20;;;;;;;46.20;14.73;100696.56;5072490;28;20060;-62
2022/08/30 10:41:51;;;;;;;3.83;2.50;;;;;;;46.46;14.01;100695.09;5071646;28;20083;-62
2022/08/30 10:44:23;;;;;;;5.75;2.17;;;;;;;46.14;14.53;100692.97;5072447;28;20052;-62
2022/08/30 10:47:02;;;;;;;3.47;2.60;;;;;;;46.21;14.27;100686.41;5077358;28;20071;-62
2022/08/30 10:49:35;;;;;;;4.45;2.35;;;;;;;46.16;14.43;100693.16;5072052;28;20048;-62
2022/08/30 10:52:25;;;;;;;3.88;2.20;;;;;;;46.42;14.17;100688.75;5071935;28;20378;-62
2022/08/30 10:54:57;;;;;;;4.13;2.33;;;;;;;46.15;14.52;100694.53;5071974;28;20049;-62
2022/08/30 10:57:26;;;;;;;2.72;2.20;;;;;;;46.49;14.27;100685.13;5073552;28;20051;-61
2022/08/30 10:59:58;;;;;;;4.05;2.13;;;;;;;44.50;15.36;100692.09;5090286;28;20511;-62
2022/08/30 11:02:46;;;;;;;3.33;1.70;;;;;;;45.73;14.72;100682.34;5091515;28;20056;-61
2022/08/30 11:05:37;;;;;;;5.40;2.20;;;;;;;46.41;14.23;100690.09;5071705;28;20044;-62
2022/08/30 11:08:17;;;;;;;3.55;2.17;;;;;;;45.55;15.04;100690.59;5071100;28;20048;-62
2022/08/30 11:10:53;;;;;;;3.42;2.40;;;;;;;46.01;14.28;100689.91;5071919;28;20055;-61
2022/08/30 11:13:25;;;;;;;5.40;2.58;;;;;;;46.22;14.23;100684.25;5071896;28;20048;-61
2022/08/30 11:15:58;;;;;;;5.10;2.33;;;;;;;46.99;14.01;100677.47;5071931;28;20481;-62
2022/08/30 11:18:28;;;;;;;4.18;2.55;;;;;;;47.21;13.45;100684.25;5071115;28;20388;-61
2022/08/30 11:21:24;;;;;;;4.38;1.95;;;;;;;47.01;13.38;100683.59;5071935;28;20394;-61
2022/08/30 11:24:03;;;;;;;5.20;2.55;;;;;;;46.06;14.19;100686.13;5071251;28;20049;-61
2022/08/30 11:26:55;;;;;;;4.28;2.33;;;;;;;46.47;13.82;100673.09;5071311;28;20052;-61
2022/08/30 11:29:45;;;;;;;4.00;2.20;;;;;;;46.13;14.03;100679.56;5061484;28;20052;-62
2022/08/30 11:32:38;;;;;;;14.55;3.65;;;;;;;46.28;14.24;100682.00;5071913;28;20409;-61
2022/08/30 11:35:06;;;;;;;4.03;2.05;;;;;;;46.60;13.75;100679.00;5064447;28;20056;-61
2022/08/30 11:37:40;;;;;;;3.90;2.00;;;;;;;46.19;14.29;100683.22;5082534;28;20048;-60